Accueil
METAR-TAF:

METAR-TAF

Aéroports :

Aéroport d'Angers-Loire

Angers, France

latitude: 47-33-37N, longitude: 000-18-44W, altitude: 59 m

Observation

Le bulletin a été fait il y a 30 minutes, à 11:00 UTC
Vent 6 kt de ouest, variant entre sud et nord
Température 23°C
Humidité 50%
Pression 1019 hPa
Visibilité 10 km ou plus
Nuages fragmentés à une hauteur de 3600 ft
Nuages fragmentés à une hauteur de 4200 ft
Ciel couvert à une hauteur de 5600 ft

METAR: LFJR 141100Z AUTO 28006KT 190V360 9999 BKN036 BKN042 OVC056 23/12 Q1019

Heure: 13:30 (11:30 UTC)


TAF: absent

Observations et prévisions météorologiques de plus de 4000 aéroports (messages METAR et TAF).

Les stations disponibles sont représentées par des disques jaunes et rouges sur la carte.

Passer la souris dessus pour voir le nom de la station.

Cliquer dessus pour voir les observations et prévisions météorologiques.

Pour changer de carte: cliquez sur les boutons verts avec une croix noire pour zoomer, sur le bouton vert avec un tiret pour effectuer un zoom arrière, ou sur les flèches vertes pour les cartes adjacentes.


METAR-TAF: